createdAt,value
2022-08-24T00:01:58.628Z,101501.09
2022-08-24T00:04:27.038Z,101499.94
2022-08-24T00:06:57.788Z,101501.84
2022-08-24T00:09:25.634Z,101510.56
2022-08-24T00:11:53.555Z,101506.53
2022-08-24T00:14:21.472Z,101507.19
2022-08-24T00:16:49.468Z,101519.03
2022-08-24T00:19:18.081Z,101511.59
2022-08-24T00:21:45.892Z,101511.97
2022-08-24T00:24:15.553Z,101509.69
2022-08-24T00:26:43.460Z,101507.34
2022-08-24T00:29:11.336Z,101508.19
2022-08-24T00:31:39.386Z,101511.25
2022-08-24T00:34:07.825Z,101508.84
2022-08-24T00:36:36.063Z,101505.13
2022-08-24T00:39:05.617Z,101511.34
2022-08-24T00:41:37.103Z,101516.13
2022-08-24T00:44:06.951Z,101506.34
2022-08-24T00:46:46.732Z,101510.56
2022-08-24T00:49:24.745Z,101518.97
2022-08-24T00:52:06.221Z,101515.59
2022-08-24T00:54:46.113Z,101512.41
2022-08-24T00:57:21.239Z,101516.94
2022-08-24T00:59:55.122Z,101511.81
2022-08-24T01:02:27.650Z,101503.66
2022-08-24T01:05:02.006Z,101510.81
2022-08-24T01:07:33.054Z,101506.13
2022-08-24T01:10:09.981Z,101507.94
2022-08-24T01:12:48.216Z,101505.94
2022-08-24T01:15:30.289Z,101505.50
2022-08-24T01:18:16.838Z,101503.41
2022-08-24T01:20:52.317Z,101511.50
2022-08-24T01:23:37.818Z,101505.13
2022-08-24T01:26:07.323Z,101512.97
2022-08-24T01:28:39.851Z,101513.63
2022-08-24T01:31:09.028Z,101507.34
2022-08-24T01:33:37.220Z,101501.72
2022-08-24T01:36:15.789Z,101511.28
2022-08-24T01:38:46.284Z,101510.44
2022-08-24T01:41:14.193Z,101515.47
2022-08-24T01:43:42.346Z,101516.72
2022-08-24T01:46:10.576Z,101519.53
2022-08-24T01:48:38.606Z,101527.44
2022-08-24T01:51:06.834Z,101527.38
2022-08-24T01:53:34.930Z,101518.97
2022-08-24T01:56:04.810Z,101525.81
2022-08-24T01:58:32.823Z,101522.16
2022-08-24T02:01:00.872Z,101524.75
2022-08-24T02:03:30.297Z,101523.28
2022-08-24T02:05:59.526Z,101526.59
2022-08-24T02:08:27.599Z,101533.31
2022-08-24T02:10:56.770Z,101530.78
2022-08-24T02:13:28.737Z,101534.19
2022-08-24T02:15:56.722Z,101537.59
2022-08-24T02:18:24.733Z,101536.44
2022-08-24T02:20:53.239Z,101528.34
2022-08-24T02:23:22.273Z,101524.94
2022-08-24T02:25:50.829Z,101542.78
2022-08-24T02:28:20.164Z,101539.69
2022-08-24T02:30:50.043Z,101525.00
2022-08-24T02:33:17.961Z,101531.88
2022-08-24T02:35:46.031Z,101527.81
2022-08-24T02:38:13.903Z,101534.06
2022-08-24T02:40:41.789Z,101530.34
2022-08-24T02:43:09.871Z,101528.63
2022-08-24T02:45:40.257Z,101520.28
2022-08-24T02:48:10.514Z,101527.59
2022-08-24T02:50:40.706Z,101526.66
2022-08-24T02:53:08.590Z,101513.94
2022-08-24T02:55:39.261Z,101511.53
2022-08-24T02:58:07.323Z,101513.31
2022-08-24T03:00:36.185Z,101520.84
2022-08-24T03:03:04.437Z,101512.25
2022-08-24T03:05:34.230Z,101513.66
2022-08-24T03:08:02.515Z,101513.63
2022-08-24T03:10:32.120Z,101505.09
2022-08-24T03:13:01.401Z,101506.25
2022-08-24T03:15:30.258Z,101507.94
2022-08-24T03:17:58.254Z,101505.31
2022-08-24T03:20:26.929Z,101511.31
2022-08-24T03:22:56.091Z,101518.19
2022-08-24T03:25:26.511Z,101512.34
2022-08-24T03:27:54.975Z,101516.06
2022-08-24T03:30:25.001Z,101517.97
2022-08-24T03:32:52.858Z,101521.47
2022-08-24T03:35:22.010Z,101520.44
2022-08-24T03:37:50.815Z,101526.00
2022-08-24T03:40:24.787Z,101520.56
2022-08-24T03:42:53.928Z,101526.78
2022-08-24T03:45:23.481Z,101512.78
2022-08-24T03:47:51.678Z,101523.47
2022-08-24T03:50:21.353Z,101521.09
2022-08-24T03:52:49.760Z,101522.19
2022-08-24T03:55:19.771Z,101529.38
2022-08-24T03:57:47.598Z,101525.09
2022-08-24T04:00:16.997Z,101528.25
2022-08-24T04:02:45.331Z,101530.56
2022-08-24T04:05:14.197Z,101539.63
2022-08-24T04:07:42.341Z,101533.31
2022-08-24T04:10:14.432Z,101538.28
2022-08-24T04:12:43.607Z,101542.16
2022-08-24T04:15:13.103Z,101542.16
2022-08-24T04:17:41.233Z,101541.72
2022-08-24T04:20:10.921Z,101539.41
2022-08-24T04:22:38.851Z,101537.84
2022-08-24T04:25:09.008Z,101547.84
2022-08-24T04:27:38.318Z,101550.97
2022-08-24T04:30:09.912Z,101547.50
2022-08-24T04:32:42.609Z,101551.47
2022-08-24T04:35:11.180Z,101546.09
2022-08-24T04:37:38.989Z,101551.97
2022-08-24T04:40:09.521Z,101546.94
2022-08-24T04:42:39.081Z,101553.81
2022-08-24T04:45:10.507Z,101555.56
2022-08-24T04:47:38.366Z,101559.13
2022-08-24T04:50:07.821Z,101565.59
2022-08-24T04:52:37.019Z,101565.75
2022-08-24T04:55:06.383Z,101562.66
2022-08-24T04:57:36.414Z,101561.66
2022-08-24T05:00:10.005Z,101566.03
2022-08-24T05:02:44.237Z,101567.94
2022-08-24T05:05:13.122Z,101578.28
2022-08-24T05:07:41.466Z,101574.16
2022-08-24T05:10:11.374Z,101577.50
2022-08-24T05:12:44.168Z,101580.63
2022-08-24T05:15:13.898Z,101587.59
2022-08-24T05:17:42.935Z,101587.25
2022-08-24T05:20:18.624Z,101589.16
2022-08-24T05:22:46.685Z,101597.34
2022-08-24T05:25:14.762Z,101601.56
2022-08-24T05:27:42.579Z,101608.56
2022-08-24T05:30:13.868Z,101600.31
2022-08-24T05:32:41.872Z,101609.69
2022-08-24T05:35:10.597Z,101604.59
2022-08-24T05:37:40.539Z,101608.00
2022-08-24T05:40:12.488Z,101603.25
2022-08-24T05:42:41.047Z,101603.03
2022-08-24T05:45:10.591Z,101609.75
2022-08-24T05:47:40.016Z,101607.69
2022-08-24T05:50:09.217Z,101602.22
2022-08-24T05:52:37.083Z,101610.31
2022-08-24T05:55:06.550Z,101604.66
2022-08-24T05:57:37.067Z,101601.38
2022-08-24T06:00:09.644Z,101599.91
2022-08-24T06:02:38.960Z,101604.31
2022-08-24T06:05:08.322Z,101616.66
2022-08-24T06:07:36.158Z,101611.97
2022-08-24T06:10:32.901Z,101608.91
2022-08-24T06:12:52.585Z,101613.28
2022-08-24T06:15:22.019Z,101606.72
2022-08-24T06:17:51.297Z,101608.47
2022-08-24T06:20:19.269Z,101612.72
2022-08-24T06:22:47.054Z,101606.91
2022-08-24T06:25:32.488Z,101615.22
2022-08-24T06:28:00.348Z,101607.41
2022-08-24T06:30:30.791Z,101619.34
2022-08-24T06:33:02.436Z,101621.72
2022-08-24T06:35:30.592Z,101612.81
2022-08-24T06:37:58.788Z,101620.03
2022-08-24T06:40:28.705Z,101626.69
2022-08-24T06:42:56.644Z,101629.03
2022-08-24T06:45:24.728Z,101636.94
2022-08-24T06:47:52.545Z,101638.41
2022-08-24T06:50:22.115Z,101632.66
2022-08-24T06:52:52.614Z,101633.25
2022-08-24T06:55:20.576Z,101631.94
2022-08-24T06:57:52.228Z,101638.09
2022-08-24T07:00:21.966Z,101642.75
2022-08-24T07:02:49.915Z,101647.75
2022-08-24T07:05:18.585Z,101651.09
2022-08-24T07:07:47.961Z,101654.69
2022-08-24T07:10:15.871Z,101655.63
2022-08-24T07:12:43.724Z,101656.81
2022-08-24T07:15:16.155Z,101653.19
2022-08-24T07:17:44.884Z,101650.38
2022-08-24T07:20:14.130Z,101651.22
2022-08-24T07:22:42.070Z,101654.91
2022-08-24T07:25:13.865Z,101646.78
2022-08-24T07:27:41.736Z,101651.44
2022-08-24T07:30:28.139Z,101653.88
2022-08-24T07:32:57.895Z,101655.63
2022-08-24T07:35:26.946Z,101656.69
2022-08-24T07:37:56.355Z,101657.25
2022-08-24T07:40:27.365Z,101660.94
2022-08-24T07:42:58.821Z,101661.19
2022-08-24T07:45:28.352Z,101656.00
2022-08-24T07:47:56.409Z,101662.88
2022-08-24T07:50:24.413Z,101653.59
2022-08-24T07:52:52.678Z,101666.94
2022-08-24T07:55:20.699Z,101663.66
2022-08-24T07:57:49.809Z,101663.19
2022-08-24T08:00:20.668Z,101665.28
2022-08-24T08:02:50.399Z,101656.84
2022-08-24T08:05:22.621Z,101671.25
2022-08-24T08:07:52.129Z,101673.19
2022-08-24T08:10:21.797Z,101672.78
2022-08-24T08:12:50.961Z,101669.88
2022-08-24T08:15:19.052Z,101679.19
2022-08-24T08:17:47.513Z,101672.38
2022-08-24T08:20:24.141Z,101673.69
2022-08-24T08:23:09.994Z,101668.09
2022-08-24T08:25:38.710Z,101669.38
2022-08-24T08:28:24.920Z,101663.56
2022-08-24T08:30:54.381Z,101668.13
2022-08-24T08:33:22.296Z,101668.03
2022-08-24T08:35:52.325Z,101666.97
2022-08-24T08:38:20.585Z,101669.06
2022-08-24T08:41:08.077Z,101673.22
2022-08-24T08:43:46.392Z,101671.47
2022-08-24T08:46:40.654Z,101684.53
2022-08-24T08:49:38.117Z,101675.06
2022-08-24T08:52:51.532Z,101673.84
2022-08-24T08:55:31.368Z,101680.94
2022-08-24T08:58:18.184Z,101684.81
2022-08-24T09:01:04.782Z,101685.59
2022-08-24T09:04:15.758Z,101684.56
2022-08-24T09:07:17.294Z,101678.91
2022-08-24T09:10:04.404Z,101680.00
2022-08-24T09:12:59.949Z,101681.97
2022-08-24T09:16:10.793Z,101669.22
2022-08-24T09:19:00.748Z,101668.41
2022-08-24T09:21:54.200Z,101675.94
2022-08-24T09:24:43.921Z,101676.25
2022-08-24T09:27:26.651Z,101681.72
2022-08-24T09:30:10.320Z,101683.38
2022-08-24T09:33:06.010Z,101678.69
2022-08-24T09:35:54.308Z,101670.88
2022-08-24T09:38:35.470Z,101673.03
2022-08-24T09:41:45.664Z,101670.53
2022-08-24T09:44:55.711Z,101678.59
2022-08-24T09:48:32.154Z,101668.22
2022-08-24T09:51:57.465Z,101664.22
2022-08-24T09:55:09.053Z,101667.00
2022-08-24T09:58:00.940Z,101676.19
2022-08-24T10:00:39.341Z,101670.56
2022-08-24T10:03:39.937Z,101673.47
2022-08-24T10:06:24.823Z,101666.72
2022-08-24T10:09:15.395Z,101670.53
2022-08-24T10:12:00.328Z,101682.84
2022-08-24T10:14:47.511Z,101676.38
2022-08-24T10:17:30.141Z,101671.56
2022-08-24T10:20:20.324Z,101664.31
2022-08-24T10:23:18.397Z,101667.31
2022-08-24T10:25:57.635Z,101663.06
2022-08-24T10:28:45.381Z,101664.44
2022-08-24T10:31:19.831Z,101653.53
2022-08-24T10:34:05.610Z,101654.69
2022-08-24T10:37:30.777Z,101656.59
2022-08-24T10:40:28.119Z,101655.28
2022-08-24T10:43:34.992Z,101655.47
2022-08-24T10:46:38.759Z,101639.75
2022-08-24T10:50:04.477Z,101647.59
2022-08-24T10:53:34.946Z,101644.78
2022-08-24T10:56:12.810Z,101630.06
2022-08-24T10:58:52.764Z,101642.75
2022-08-24T11:01:30.261Z,101640.34
2022-08-24T11:04:04.728Z,101639.75
2022-08-24T11:06:37.431Z,101644.91
2022-08-24T11:09:13.055Z,101644.75
2022-08-24T11:11:48.092Z,101649.09
2022-08-24T11:14:29.104Z,101635.69
2022-08-24T11:17:17.457Z,101637.59
2022-08-24T11:19:46.136Z,101636.34
2022-08-24T11:22:40.668Z,101639.16
2022-08-24T11:25:17.571Z,101637.13
2022-08-24T11:27:53.305Z,101630.91
2022-08-24T11:30:28.251Z,101635.09
2022-08-24T11:32:59.483Z,101627.25
2022-08-24T11:35:37.108Z,101623.72
2022-08-24T11:38:18.724Z,101630.44
2022-08-24T11:40:56.348Z,101624.69
2022-08-24T11:43:39.828Z,101619.00
2022-08-24T11:46:24.452Z,101620.66
2022-08-24T11:49:07.872Z,101624.88
2022-08-24T11:51:46.638Z,101618.53
2022-08-24T11:54:29.831Z,101610.00
2022-08-24T11:57:14.822Z,101610.50
2022-08-24T11:59:56.145Z,101613.81
2022-08-24T12:02:34.867Z,101603.31
2022-08-24T12:05:09.239Z,101598.84
2022-08-24T12:07:55.218Z,101602.19
2022-08-24T12:10:39.017Z,101599.50
2022-08-24T12:13:21.054Z,101602.72
2022-08-24T12:16:00.389Z,101595.72
2022-08-24T12:18:38.941Z,101598.53
2022-08-24T12:21:12.544Z,101596.22
2022-08-24T12:23:46.719Z,101586.41
2022-08-24T12:26:23.240Z,101595.84
2022-08-24T12:28:57.050Z,101586.75
2022-08-24T12:31:47.000Z,101595.28
2022-08-24T12:34:25.456Z,101595.06
2022-08-24T12:37:04.770Z,101589.75
2022-08-24T12:39:51.036Z,101587.41
2022-08-24T12:42:25.714Z,101584.28
2022-08-24T12:45:00.091Z,101579.00
2022-08-24T12:47:36.842Z,101574.22
2022-08-24T12:50:15.009Z,101579.25
2022-08-24T12:53:36.875Z,101572.91
2022-08-24T12:56:45.050Z,101560.97
2022-08-24T12:59:24.516Z,101575.44
2022-08-24T13:02:02.870Z,101567.22
2022-08-24T13:04:43.473Z,101566.69
2022-08-24T13:07:29.844Z,101569.91
2022-08-24T13:10:14.689Z,101570.09
2022-08-24T13:13:20.584Z,101574.75
2022-08-24T13:15:57.978Z,101575.00
2022-08-24T13:18:51.963Z,101575.09
2022-08-24T13:21:46.707Z,101576.28
2022-08-24T13:24:44.791Z,101577.41
2022-08-24T13:28:03.962Z,101569.38
2022-08-24T13:31:05.714Z,101569.66
2022-08-24T13:33:41.880Z,101565.88
2022-08-24T13:36:44.829Z,101567.19
2022-08-24T13:39:39.121Z,101566.66
2022-08-24T13:42:24.522Z,101556.88
2022-08-24T13:45:17.898Z,101558.81
2022-08-24T13:47:56.807Z,101554.91
2022-08-24T13:50:50.729Z,101558.63
2022-08-24T13:53:58.770Z,101556.78
2022-08-24T13:56:49.085Z,101559.88
2022-08-24T13:59:44.119Z,101560.22
2022-08-24T14:02:36.640Z,101559.50
2022-08-24T14:05:25.899Z,101550.16
2022-08-24T14:08:13.999Z,101557.81
2022-08-24T14:10:58.893Z,101560.25
2022-08-24T14:13:47.789Z,101555.91
2022-08-24T14:16:59.870Z,101563.22
2022-08-24T14:19:45.526Z,101552.75
2022-08-24T14:22:30.921Z,101547.06
2022-08-24T14:25:17.099Z,101548.72
2022-08-24T14:27:48.165Z,101549.91
2022-08-24T14:30:50.261Z,101546.72
2022-08-24T14:33:34.043Z,101549.16
2022-08-24T14:36:19.490Z,101549.56
2022-08-24T14:39:06.400Z,101553.19
2022-08-24T14:41:54.972Z,101550.78
2022-08-24T14:44:45.773Z,101546.50
2022-08-24T14:47:33.113Z,101536.59
2022-08-24T14:50:13.170Z,101533.78
2022-08-24T14:53:01.071Z,101542.47
2022-08-24T14:55:42.337Z,101539.81
2022-08-24T14:58:31.104Z,101544.75
2022-08-24T15:01:34.136Z,101528.47
2022-08-24T15:04:37.438Z,101532.00
2022-08-24T15:07:26.833Z,101531.69
2022-08-24T15:09:56.611Z,101526.69
2022-08-24T15:12:42.497Z,101530.28
2022-08-24T15:15:23.813Z,101532.19
2022-08-24T15:18:02.609Z,101528.25
2022-08-24T15:21:03.897Z,101526.41
2022-08-24T15:23:50.891Z,101519.41
2022-08-24T15:26:33.773Z,101515.03
2022-08-24T15:29:14.756Z,101529.19
2022-08-24T15:31:44.148Z,101521.31
2022-08-24T15:34:12.203Z,101521.28
2022-08-24T15:36:41.502Z,101517.47
2022-08-24T15:39:09.389Z,101519.59
2022-08-24T15:41:42.978Z,101528.25
2022-08-24T15:44:21.207Z,101525.59
2022-08-24T15:46:58.643Z,101525.47
2022-08-24T15:49:32.125Z,101520.16
2022-08-24T15:52:06.179Z,101530.00
2022-08-24T15:54:43.938Z,101523.84
2022-08-24T15:57:30.807Z,101518.47
2022-08-24T16:00:12.381Z,101528.25
2022-08-24T16:02:39.709Z,101521.31
2022-08-24T16:05:21.722Z,101519.44
2022-08-24T16:08:10.521Z,101523.56
2022-08-24T16:10:44.703Z,101524.03
2022-08-24T16:13:26.381Z,101514.69
2022-08-24T16:16:03.024Z,101522.59
2022-08-24T16:18:49.144Z,101513.97
2022-08-24T16:21:28.657Z,101508.56
2022-08-24T16:24:09.896Z,101521.47
2022-08-24T16:26:59.292Z,101517.50
2022-08-24T16:29:53.391Z,101514.38
2022-08-24T16:32:30.582Z,101527.56
2022-08-24T16:35:20.570Z,101517.41
2022-08-24T16:37:48.545Z,101522.00
2022-08-24T16:40:17.953Z,101532.69
2022-08-24T16:42:46.191Z,101534.94
2022-08-24T16:45:19.124Z,101527.69
2022-08-24T16:47:48.096Z,101523.56
2022-08-24T16:50:18.933Z,101530.75
2022-08-24T16:52:46.925Z,101524.22
2022-08-24T16:55:15.124Z,101528.56
2022-08-24T16:57:46.904Z,101521.31
2022-08-24T17:00:21.971Z,101530.69
2022-08-24T17:02:50.886Z,101529.47
2022-08-24T17:05:19.657Z,101538.75
2022-08-24T17:07:48.581Z,101530.00
2022-08-24T17:10:19.779Z,101525.69
2022-08-24T17:12:51.854Z,101532.44
2022-08-24T17:15:20.802Z,101527.19
2022-08-24T17:17:57.317Z,101523.03
2022-08-24T17:20:25.589Z,101537.72
2022-08-24T17:22:53.401Z,101541.00
2022-08-24T17:25:21.392Z,101542.97
2022-08-24T17:27:52.697Z,101538.88
2022-08-24T17:30:23.015Z,101547.72
2022-08-24T17:32:52.434Z,101545.63
2022-08-24T17:35:20.886Z,101545.63
2022-08-24T17:37:51.060Z,101558.50
2022-08-24T17:40:24.479Z,101557.41
2022-08-24T17:42:54.178Z,101553.06
2022-08-24T17:45:23.324Z,101558.50
2022-08-24T17:47:52.754Z,101558.69
2022-08-24T17:50:24.165Z,101562.72
2022-08-24T17:52:56.264Z,101557.09
2022-08-24T17:55:29.491Z,101560.03
2022-08-24T17:57:59.135Z,101562.06
2022-08-24T18:00:27.148Z,101574.47
2022-08-24T18:02:55.039Z,101575.22
2022-08-24T18:05:22.889Z,101577.41
2022-08-24T18:07:55.124Z,101575.69
2022-08-24T18:10:26.295Z,101582.81
2022-08-24T18:12:54.794Z,101586.97
2022-08-24T18:15:35.807Z,101587.03
2022-08-24T18:18:09.296Z,101591.19
2022-08-24T18:20:42.397Z,101599.19
2022-08-24T18:23:11.934Z,101606.59
2022-08-24T18:25:48.290Z,101610.38
2022-08-24T18:28:20.785Z,101607.88
2022-08-24T18:30:50.157Z,101607.44
2022-08-24T18:33:18.254Z,101604.53
2022-08-24T18:35:46.856Z,101600.53
2022-08-24T18:38:14.931Z,101607.47
2022-08-24T18:40:52.121Z,101616.78
2022-08-24T18:43:24.599Z,101615.97
2022-08-24T18:45:54.936Z,101623.94
2022-08-24T18:48:23.700Z,101620.16
2022-08-24T18:50:53.150Z,101628.28
2022-08-24T18:53:25.592Z,101629.53
2022-08-24T18:55:53.520Z,101627.41
2022-08-24T18:58:21.800Z,101630.81
2022-08-24T19:00:51.082Z,101643.59
2022-08-24T19:03:24.609Z,101646.78
2022-08-24T19:05:52.553Z,101649.94
2022-08-24T19:08:20.872Z,101642.13
2022-08-24T19:10:48.864Z,101647.50
2022-08-24T19:13:18.351Z,101634.25
2022-08-24T19:15:47.553Z,101633.94
2022-08-24T19:18:17.319Z,101630.88
2022-08-24T19:20:50.593Z,101634.06
2022-08-24T19:23:24.116Z,101634.41
2022-08-24T19:25:54.481Z,101639.56
2022-08-24T19:28:23.985Z,101633.44
2022-08-24T19:30:56.684Z,101640.53
2022-08-24T19:33:28.293Z,101632.78
2022-08-24T19:35:59.032Z,101643.94
2022-08-24T19:38:27.246Z,101643.31
2022-08-24T19:40:58.052Z,101635.94
2022-08-24T19:43:27.950Z,101642.50
2022-08-24T19:46:02.538Z,101634.25
2022-08-24T19:48:31.641Z,101638.69
2022-08-24T19:51:04.064Z,101638.63
2022-08-24T19:53:35.298Z,101632.34
2022-08-24T19:56:04.010Z,101638.06
2022-08-24T19:58:44.439Z,101639.22
2022-08-24T20:01:18.837Z,101635.25
2022-08-24T20:03:46.998Z,101636.22
2022-08-24T20:06:18.949Z,101640.47
2022-08-24T20:08:48.374Z,101651.94
2022-08-24T20:11:17.459Z,101649.63
2022-08-24T20:13:46.166Z,101650.28
2022-08-24T20:16:18.186Z,101656.09
2022-08-24T20:18:47.548Z,101655.19
2022-08-24T20:21:17.652Z,101648.69
2022-08-24T20:23:45.961Z,101655.75
2022-08-24T20:26:15.253Z,101654.28
2022-08-24T20:28:47.852Z,101660.06
2022-08-24T20:31:17.195Z,101652.19
2022-08-24T20:33:45.489Z,101650.91
2022-08-24T20:36:26.621Z,101647.31
2022-08-24T20:38:58.302Z,101649.41
2022-08-24T20:41:26.934Z,101659.75
2022-08-24T20:43:55.086Z,101660.19
2022-08-24T20:46:23.434Z,101654.41
2022-08-24T20:48:55.652Z,101665.81
2022-08-24T20:51:25.791Z,101666.09
2022-08-24T20:53:53.849Z,101660.91
2022-08-24T20:56:30.740Z,101664.34
2022-08-24T20:59:01.688Z,101659.66
2022-08-24T21:01:30.033Z,101674.22
2022-08-24T21:04:02.846Z,101658.72
2022-08-24T21:06:35.202Z,101663.72
2022-08-24T21:09:04.890Z,101666.22
2022-08-24T21:11:33.525Z,101662.72
2022-08-24T21:14:05.473Z,101667.16
2022-08-24T21:16:37.500Z,101669.34
2022-08-24T21:19:05.469Z,101660.44
2022-08-24T21:21:35.355Z,101670.59
2022-08-24T21:24:04.697Z,101659.19
2022-08-24T21:26:35.013Z,101665.16
2022-08-24T21:29:06.669Z,101661.94
2022-08-24T21:31:35.137Z,101668.09
2022-08-24T21:34:22.667Z,101675.22
2022-08-24T21:36:54.243Z,101664.53
2022-08-24T21:39:22.566Z,101663.97
2022-08-24T21:41:50.455Z,101659.78
2022-08-24T21:44:18.450Z,101672.81
2022-08-24T21:46:46.406Z,101671.19
2022-08-24T21:49:15.232Z,101672.22
2022-08-24T21:51:43.119Z,101668.88
2022-08-24T21:54:13.161Z,101664.25
2022-08-24T21:56:41.490Z,101674.59
2022-08-24T21:59:09.603Z,101681.16
2022-08-24T22:01:38.773Z,101679.72
2022-08-24T22:04:08.027Z,101678.81
2022-08-24T22:06:36.471Z,101677.88
2022-08-24T22:09:05.577Z,101676.50
2022-08-24T22:11:35.226Z,101669.66
2022-08-24T22:14:04.632Z,101675.44
2022-08-24T22:16:32.912Z,101669.13
2022-08-24T22:19:05.728Z,101660.16
2022-08-24T22:21:36.176Z,101661.34
2022-08-24T22:24:05.179Z,101658.72
2022-08-24T22:26:35.685Z,101668.97
2022-08-24T22:29:06.253Z,101668.03
2022-08-24T22:31:40.633Z,101667.91
2022-08-24T22:34:12.537Z,101674.47
2022-08-24T22:36:47.333Z,101675.91
2022-08-24T22:39:15.421Z,101666.63
2022-08-24T22:41:45.154Z,101671.16
2022-08-24T22:44:21.932Z,101673.47
2022-08-24T22:46:53.284Z,101677.84
2022-08-24T22:49:24.491Z,101673.75
2022-08-24T22:51:53.028Z,101667.63
2022-08-24T22:54:24.541Z,101667.53
2022-08-24T22:56:57.177Z,101666.63
2022-08-24T22:59:28.460Z,101661.59
2022-08-24T23:01:58.222Z,101665.31
2022-08-24T23:04:29.702Z,101657.16
2022-08-24T23:06:57.705Z,101664.75
2022-08-24T23:09:25.840Z,101662.72
2022-08-24T23:11:55.654Z,101658.59
2022-08-24T23:14:25.391Z,101668.50
2022-08-24T23:16:53.860Z,101664.25
2022-08-24T23:19:42.726Z,101655.88
2022-08-24T23:22:14.729Z,101662.34
2022-08-24T23:24:45.049Z,101654.06
2022-08-24T23:27:16.665Z,101651.09
2022-08-24T23:29:45.971Z,101650.75
2022-08-24T23:32:17.888Z,101649.31
2022-08-24T23:34:46.748Z,101647.63
2022-08-24T23:37:15.545Z,101642.78
2022-08-24T23:39:44.021Z,101652.44
2022-08-24T23:42:12.392Z,101648.47
2022-08-24T23:44:42.213Z,101653.97
2022-08-24T23:47:10.221Z,101647.19
2022-08-24T23:49:39.773Z,101650.00
2022-08-24T23:52:07.633Z,101650.75
2022-08-24T23:54:35.831Z,101636.13
2022-08-24T23:57:08.597Z,101633.38
2022-08-24T23:59:36.981Z,101638.69
